Time;durP1;ratioP1;P1;durP2;ratioP2;P2;SDS_P1;SDS_P2;PMS_P1;PMS_P2;Temp;Humidity;BMP_temperature;BMP_pressure;BME280_temperature;BME280_humidity;BME280_pressure;Samples;Min_cycle;Max_cycle;Signal;HPM_P1;HPM_P2
2021/11/07 00:02:47;;;;;;;21.45;10.38;;;;;;;;;;5059063;28;20095;-67
2021/11/07 00:05:26;;;;;;;21.55;9.98;;;;;;;;;;5064330;28;20120;-64
2021/11/07 00:11:32;;;;;;;19.45;10.50;;;;;;;;;;5068483;28;20102;-65
2021/11/07 00:14:00;;;;;;;24.65;10.43;;;;;;;;;;5054927;28;20132;-65
2021/11/07 00:16:30;;;;;;;21.58;10.07;;;;;;;;;;5064840;28;20142;-64
2021/11/07 00:19:11;;;;;;;23.85;11.30;;;;;;;;;;5066029;28;20040;-64
2021/11/07 00:21:46;;;;;;;19.95;10.63;;;;;;;;;;5062332;28;20128;-66
2021/11/07 00:24:17;;;;;;;20.02;10.55;;;;;;;;;;5073979;28;20071;-65
2021/11/07 00:26:54;;;;;;;24.67;10.40;;;;;;;;;;5063208;28;20132;-65
2021/11/07 00:29:25;;;;;;;22.95;10.57;;;;;;;;;;5064065;28;20102;-65
2021/11/07 00:32:01;;;;;;;19.83;10.07;;;;;;;;;;5073551;28;20080;-65
2021/11/07 00:37:16;;;;;;;16.90;8.85;;;;;;;;;;5054651;28;20048;-65
2021/11/07 00:39:48;;;;;;;17.50;8.30;;;;;;;;;;5058050;28;20052;-65
2021/11/07 00:42:21;;;;;;;14.65;7.72;;;;;;;;;;5064099;28;20080;-65
2021/11/07 00:44:55;;;;;;;15.35;7.70;;;;;;;;;;5067828;28;20124;-65
2021/11/07 00:47:32;;;;;;;17.57;8.17;;;;;;;;;;5068497;28;20054;-64
2021/11/07 00:50:04;;;;;;;16.77;8.30;;;;;;;;;;5063309;28;20131;-65
2021/11/07 00:52:37;;;;;;;15.50;7.75;;;;;;;;;;5068065;28;20543;-65
2021/11/07 00:55:10;;;;;;;17.67;8.52;;;;;;;;;;5053736;28;20471;-65
2021/11/07 00:57:51;;;;;;;18.63;8.38;;;;;;;;;;5063559;28;20131;-65
2021/11/07 01:00:26;;;;;;;17.88;8.55;;;;;;;;;;5068487;28;20135;-64
2021/11/07 01:02:58;;;;;;;15.38;8.10;;;;;;;;;;5060793;28;20076;-64
2021/11/07 01:05:32;;;;;;;14.48;7.68;;;;;;;;;;5068579;28;20048;-65
2021/11/07 01:08:02;;;;;;;14.52;7.45;;;;;;;;;;5068485;28;20051;-65
2021/11/07 01:10:31;;;;;;;16.50;8.25;;;;;;;;;;5065130;28;20044;-65
2021/11/07 01:12:59;;;;;;;17.52;7.88;;;;;;;;;;5064667;28;20124;-64
2021/11/07 01:15:27;;;;;;;13.45;6.75;;;;;;;;;;5074415;28;20047;-64
2021/11/07 01:17:59;;;;;;;14.38;7.50;;;;;;;;;;5061873;28;20485;-64
2021/11/07 01:20:29;;;;;;;15.68;8.52;;;;;;;;;;5072830;28;20571;-64
2021/11/07 01:23:01;;;;;;;16.88;8.15;;;;;;;;;;5079901;28;20098;-64
2021/11/07 01:25:34;;;;;;;14.15;7.43;;;;;;;;;;5059489;28;20582;-65
2021/11/07 01:28:15;;;;;;;14.53;6.93;;;;;;;;;;3445879;28;10021500;-65
2021/11/07 01:30:48;;;;;;;15.68;7.97;;;;;;;;;;2619789;28;10002042;-64
2021/11/07 01:33:21;;;;;;;15.57;7.28;;;;;;;;;;5067202;28;20500;-66
2021/11/07 01:35:57;;;;;;;21.15;9.10;;;;;;;;;;5066716;28;20135;-64
2021/11/07 01:38:28;;;;;;;16.20;7.47;;;;;;;;;;5058470;28;20527;-65
2021/11/07 01:41:03;;;;;;;18.60;8.43;;;;;;;;;;5072114;28;20057;-65
2021/11/07 01:43:32;;;;;;;17.98;8.05;;;;;;;;;;5072024;28;20124;-65
2021/11/07 01:46:08;;;;;;;15.00;7.65;;;;;;;;;;5074484;28;20044;-64
2021/11/07 01:48:44;;;;;;;20.58;8.85;;;;;;;;;;5071966;28;20403;-66
2021/11/07 01:51:13;;;;;;;20.17;8.82;;;;;;;;;;5071311;28;20487;-64
2021/11/07 01:53:41;;;;;;;17.88;8.02;;;;;;;;;;5064584;28;20049;-64
2021/11/07 01:56:12;;;;;;;19.85;9.05;;;;;;;;;;5051321;28;20052;-65
2021/11/07 01:58:42;;;;;;;19.23;8.18;;;;;;;;;;5070405;28;20484;-64
2021/11/07 02:01:10;;;;;;;22.80;10.18;;;;;;;;;;5070820;28;20055;-65
2021/11/07 02:03:39;;;;;;;20.65;9.30;;;;;;;;;;5070671;28;20041;-64
2021/11/07 02:06:07;;;;;;;25.13;10.38;;;;;;;;;;5071528;28;20072;-64
2021/11/07 02:08:36;;;;;;;21.80;9.95;;;;;;;;;;5070575;28;20336;-65
2021/11/07 02:11:04;;;;;;;20.48;8.55;;;;;;;;;;5062977;28;20447;-65
2021/11/07 02:13:34;;;;;;;24.23;10.18;;;;;;;;;;5071399;28;20109;-63
2021/11/07 02:16:03;;;;;;;23.33;9.65;;;;;;;;;;5063217;28;20048;-64
2021/11/07 02:18:31;;;;;;;23.40;9.43;;;;;;;;;;5072012;28;20036;-64
2021/11/07 02:21:04;;;;;;;24.27;10.25;;;;;;;;;;5071609;28;20127;-64
2021/11/07 02:23:32;;;;;;;25.40;9.77;;;;;;;;;;5073293;28;20500;-64
2021/11/07 02:26:04;;;;;;;23.05;9.77;;;;;;;;;;5069372;28;20055;-64
2021/11/07 02:28:38;;;;;;;26.85;9.57;;;;;;;;;;5070329;28;20041;-63
2021/11/07 02:31:07;;;;;;;23.80;10.43;;;;;;;;;;5059788;28;20162;-64
2021/11/07 02:33:36;;;;;;;20.77;9.68;;;;;;;;;;5071121;28;20084;-65
2021/11/07 02:36:08;;;;;;;22.48;9.00;;;;;;;;;;5070944;28;20563;-64
2021/11/07 02:38:36;;;;;;;22.55;8.88;;;;;;;;;;5071331;28;20070;-64
2021/11/07 02:41:05;;;;;;;22.75;9.73;;;;;;;;;;5065639;28;20113;-65
2021/11/07 02:43:40;;;;;;;18.73;9.07;;;;;;;;;;5062207;28;20048;-65
2021/11/07 02:46:10;;;;;;;18.00;9.07;;;;;;;;;;5061351;28;20474;-64
2021/11/07 02:48:38;;;;;;;19.42;8.73;;;;;;;;;;5056766;28;20566;-65
2021/11/07 02:51:08;;;;;;;22.27;8.50;;;;;;;;;;5070977;28;20051;-64
2021/11/07 02:53:36;;;;;;;20.67;8.40;;;;;;;;;;5067666;28;20053;-65
2021/11/07 02:56:05;;;;;;;19.45;8.50;;;;;;;;;;5070617;28;20519;-65
2021/11/07 02:58:34;;;;;;;19.95;7.65;;;;;;;;;;5078340;28;20055;-65
2021/11/07 03:01:03;;;;;;;20.40;8.20;;;;;;;;;;5067267;28;20127;-64
2021/11/07 03:03:32;;;;;;;20.42;8.15;;;;;;;;;;5068884;28;20047;-64
2021/11/07 03:06:01;;;;;;;17.02;7.97;;;;;;;;;;5070535;28;20463;-65
2021/11/07 03:08:31;;;;;;;18.55;7.90;;;;;;;;;;5069954;28;20056;-64
2021/11/07 03:11:00;;;;;;;16.30;7.10;;;;;;;;;;5069942;28;20040;-66
2021/11/07 03:13:29;;;;;;;16.30;7.50;;;;;;;;;;5068357;28;20053;-64
2021/11/07 03:15:57;;;;;;;17.80;7.85;;;;;;;;;;5069993;28;20064;-64
2021/11/07 03:18:25;;;;;;;16.20;6.88;;;;;;;;;;5071095;28;20055;-65
2021/11/07 03:20:53;;;;;;;15.88;7.15;;;;;;;;;;5067840;28;20052;-64
2021/11/07 03:23:22;;;;;;;15.48;7.30;;;;;;;;;;5069050;28;20140;-65
2021/11/07 03:26:03;;;;;;;13.10;6.35;;;;;;;;;;5060946;28;20059;-66
2021/11/07 03:28:32;;;;;;;13.43;6.63;;;;;;;;;;5056709;28;20143;-65
2021/11/07 03:31:03;;;;;;;14.40;7.47;;;;;;;;;;5053007;28;20047;-65
2021/11/07 03:33:36;;;;;;;14.70;6.68;;;;;;;;;;5057419;28;20048;-64
2021/11/07 03:36:06;;;;;;;17.38;7.10;;;;;;;;;;5059870;28;20129;-66
2021/11/07 03:38:34;;;;;;;12.38;6.32;;;;;;;;;;5060777;28;20363;-65
2021/11/07 03:41:04;;;;;;;14.13;6.47;;;;;;;;;;5065293;28;20041;-66
2021/11/07 03:43:32;;;;;;;11.40;6.28;;;;;;;;;;5059228;28;20059;-64
2021/11/07 03:46:01;;;;;;;14.60;6.50;;;;;;;;;;5068309;28;20044;-64
2021/11/07 03:48:29;;;;;;;11.75;5.57;;;;;;;;;;5066169;28;20559;-64
2021/11/07 03:50:57;;;;;;;10.95;5.70;;;;;;;;;;5066950;28;20047;-65
2021/11/07 03:53:26;;;;;;;11.30;5.72;;;;;;;;;;5067722;28;20076;-65
2021/11/07 03:55:55;;;;;;;11.77;5.43;;;;;;;;;;5068287;28;20064;-65
2021/11/07 03:58:24;;;;;;;10.43;5.55;;;;;;;;;;5065869;28;20041;-65
2021/11/07 04:00:53;;;;;;;11.98;5.50;;;;;;;;;;5066369;28;20052;-65
2021/11/07 04:03:21;;;;;;;13.70;5.95;;;;;;;;;;5067192;28;20447;-65
2021/11/07 04:05:50;;;;;;;10.98;5.80;;;;;;;;;;5068690;28;20131;-64
2021/11/07 04:08:19;;;;;;;10.73;5.90;;;;;;;;;;5068015;28;20048;-63
2021/11/07 04:10:47;;;;;;;12.75;6.07;;;;;;;;;;5067517;28;20396;-64
2021/11/07 04:13:16;;;;;;;12.88;6.43;;;;;;;;;;5079044;28;20399;-64
2021/11/07 04:15:46;;;;;;;15.45;6.72;;;;;;;;;;5069586;28;20052;-64
2021/11/07 04:18:14;;;;;;;14.90;6.15;;;;;;;;;;5064694;28;20132;-64
2021/11/07 04:20:42;;;;;;;15.40;6.30;;;;;;;;;;5065135;28;20051;-64
2021/11/07 04:23:11;;;;;;;15.00;6.80;;;;;;;;;;5064186;28;20392;-64
2021/11/07 04:25:39;;;;;;;12.98;6.30;;;;;;;;;;5064256;28;20135;-64
2021/11/07 04:28:07;;;;;;;16.05;6.95;;;;;;;;;;5059226;28;20139;-64
2021/11/07 04:30:36;;;;;;;14.95;6.43;;;;;;;;;;5062961;28;20059;-64
2021/11/07 04:33:05;;;;;;;16.45;6.93;;;;;;;;;;5065227;28;20151;-64
2021/11/07 04:35:34;;;;;;;13.35;6.65;;;;;;;;;;5065713;28;20119;-64
2021/11/07 04:38:02;;;;;;;16.33;7.10;;;;;;;;;;5064557;28;20040;-64
2021/11/07 04:40:30;;;;;;;16.67;6.88;;;;;;;;;;5062146;28;20140;-64
2021/11/07 04:42:58;;;;;;;16.20;6.80;;;;;;;;;;5059751;28;20146;-63
2021/11/07 04:45:27;;;;;;;17.48;7.32;;;;;;;;;;5057279;28;20132;-65
2021/11/07 04:47:59;;;;;;;20.33;8.07;;;;;;;;;;5065420;28;20055;-65
2021/11/07 04:50:28;;;;;;;17.38;7.38;;;;;;;;;;5057350;28;20488;-64
2021/11/07 04:52:57;;;;;;;20.13;7.28;;;;;;;;;;5072584;28;20130;-64
2021/11/07 04:55:25;;;;;;;20.70;8.27;;;;;;;;;;5060430;28;20135;-64
2021/11/07 04:57:53;;;;;;;22.02;8.40;;;;;;;;;;5067479;28;20131;-64
2021/11/07 05:00:23;;;;;;;20.10;8.40;;;;;;;;;;5068861;28;20048;-64
2021/11/07 05:02:52;;;;;;;19.63;8.80;;;;;;;;;;5059621;28;20246;-64
2021/11/07 05:05:21;;;;;;;19.05;7.90;;;;;;;;;;5059139;28;20480;-64
2021/11/07 05:07:53;;;;;;;21.27;8.75;;;;;;;;;;5063226;28;20091;-64
2021/11/07 05:10:21;;;;;;;20.17;7.45;;;;;;;;;;5051219;28;20124;-64
2021/11/07 05:12:49;;;;;;;22.67;8.10;;;;;;;;;;5070494;28;20470;-64
2021/11/07 05:15:18;;;;;;;22.77;8.95;;;;;;;;;;5066038;28;20073;-64
2021/11/07 05:17:47;;;;;;;23.60;9.07;;;;;;;;;;5067911;28;20049;-65
2021/11/07 05:20:15;;;;;;;20.58;7.93;;;;;;;;;;5059555;28;20395;-65
2021/11/07 05:22:43;;;;;;;17.92;6.90;;;;;;;;;;5056120;28;20469;-65
2021/11/07 05:25:14;;;;;;;17.88;8.10;;;;;;;;;;5071142;28;20560;-64
2021/11/07 05:27:43;;;;;;;20.10;8.73;;;;;;;;;;5061551;28;20060;-64
2021/11/07 05:30:13;;;;;;;21.42;8.43;;;;;;;;;;5072213;28;20072;-64
2021/11/07 05:32:42;;;;;;;17.30;7.03;;;;;;;;;;5061316;28;20052;-64
2021/11/07 05:35:11;;;;;;;16.17;6.65;;;;;;;;;;5057631;28;20146;-64
2021/11/07 05:37:39;;;;;;;16.83;7.93;;;;;;;;;;5067624;28;20136;-64
2021/11/07 05:40:08;;;;;;;17.38;7.68;;;;;;;;;;5064944;28;20080;-63
2021/11/07 05:42:39;;;;;;;16.80;7.45;;;;;;;;;;5070791;28;20139;-64
2021/11/07 05:45:07;;;;;;;16.92;7.28;;;;;;;;;;5073459;28;20564;-64
2021/11/07 05:47:35;;;;;;;16.67;7.65;;;;;;;;;;5049405;28;20053;-64
2021/11/07 05:50:04;;;;;;;18.50;7.40;;;;;;;;;;5067351;28;20102;-64
2021/11/07 05:52:32;;;;;;;14.23;6.75;;;;;;;;;;5072824;28;20110;-65
2021/11/07 05:55:01;;;;;;;16.63;6.57;;;;;;;;;;5075956;28;20040;-65
2021/11/07 05:57:29;;;;;;;13.88;6.28;;;;;;;;;;5078053;28;20530;-63
2021/11/07 06:00:00;;;;;;;14.40;6.95;;;;;;;;;;5070158;28;20056;-64
2021/11/07 06:02:29;;;;;;;15.80;6.63;;;;;;;;;;5067069;28;20104;-65
2021/11/07 06:04:57;;;;;;;17.02;6.32;;;;;;;;;;5077001;28;20174;-64
2021/11/07 06:07:25;;;;;;;17.23;7.40;;;;;;;;;;5063572;28;20053;-64
2021/11/07 06:09:54;;;;;;;17.42;7.68;;;;;;;;;;5074387;28;20459;-64
2021/11/07 06:12:23;;;;;;;14.32;6.90;;;;;;;;;;5060105;28;20136;-64
2021/11/07 06:14:51;;;;;;;15.98;7.22;;;;;;;;;;5076220;28;20092;-64
2021/11/07 06:17:21;;;;;;;16.15;6.78;;;;;;;;;;5065632;28;20041;-65
2021/11/07 06:19:49;;;;;;;14.60;6.32;;;;;;;;;;5066631;28;20667;-65
2021/11/07 06:22:17;;;;;;;13.25;6.57;;;;;;;;;;5059712;28;20167;-64
2021/11/07 06:24:45;;;;;;;16.85;7.10;;;;;;;;;;5064643;28;20131;-64
2021/11/07 06:27:14;;;;;;;14.38;7.22;;;;;;;;;;5070724;28;20051;-64
2021/11/07 06:29:43;;;;;;;17.42;7.25;;;;;;;;;;5086443;28;20072;-64
2021/11/07 06:32:12;;;;;;;16.63;7.15;;;;;;;;;;5077492;28;20051;-65
2021/11/07 06:34:41;;;;;;;17.33;7.10;;;;;;;;;;5075719;28;20140;-64
2021/11/07 06:37:11;;;;;;;16.60;7.00;;;;;;;;;;5071278;28;20044;-65
2021/11/07 06:39:39;;;;;;;19.83;7.57;;;;;;;;;;5068124;28;20140;-65
2021/11/07 06:42:09;;;;;;;16.05;6.78;;;;;;;;;;5067925;28;20045;-64
2021/11/07 06:44:37;;;;;;;20.05;6.90;;;;;;;;;;5075657;28;20115;-65
2021/11/07 06:47:08;;;;;;;19.52;7.15;;;;;;;;;;5075914;28;20131;-65
2021/11/07 06:49:36;;;;;;;14.95;6.93;;;;;;;;;;5065204;28;20563;-65
2021/11/07 06:52:06;;;;;;;13.48;6.85;;;;;;;;;;5065038;28;20120;-64
2021/11/07 06:54:34;;;;;;;15.77;6.55;;;;;;;;;;5058490;28;20060;-65
2021/11/07 06:57:03;;;;;;;15.88;7.88;;;;;;;;;;5068309;28;20067;-64
2021/11/07 06:59:32;;;;;;;16.92;7.47;;;;;;;;;;5071373;28;20511;-64
2021/11/07 07:02:00;;;;;;;18.77;7.10;;;;;;;;;;5064735;28;20127;-65
2021/11/07 07:04:29;;;;;;;22.17;7.85;;;;;;;;;;5069364;28;20102;-64
2021/11/07 07:06:57;;;;;;;21.48;7.07;;;;;;;;;;5070063;28;20101;-65
2021/11/07 07:09:29;;;;;;;24.38;8.40;;;;;;;;;;5072274;28;20049;-65
2021/11/07 07:12:06;;;;;;;20.08;8.82;;;;;;;;;;5071817;28;20123;-64
2021/11/07 07:14:38;;;;;;;23.55;8.02;;;;;;;;;;5063964;28;20052;-64
2021/11/07 07:17:19;;;;;;;23.33;9.18;;;;;;;;;;5064243;28;20127;-64
2021/11/07 07:19:59;;;;;;;23.95;9.60;;;;;;;;;;5052935;28;20167;-64
2021/11/07 07:22:46;;;;;;;23.42;9.13;;;;;;;;;;5066086;28;20045;-64
2021/11/07 07:25:38;;;;;;;18.45;8.02;;;;;;;;;;5067508;28;20123;-65
2021/11/07 07:28:24;;;;;;;19.63;7.78;;;;;;;;;;5066510;28;20049;-65
2021/11/07 07:33:39;;;;;;;21.73;8.95;;;;;;;;;;5041688;28;20071;-65
2021/11/07 07:36:07;;;;;;;24.45;9.43;;;;;;;;;;5057985;28;20052;-65
2021/11/07 07:38:36;;;;;;;22.17;9.32;;;;;;;;;;5068394;28;20080;-65
2021/11/07 07:41:06;;;;;;;23.38;10.10;;;;;;;;;;5056969;28;20053;-65
2021/11/07 07:43:34;;;;;;;24.90;9.75;;;;;;;;;;5062645;28;20128;-64
2021/11/07 07:46:06;;;;;;;21.77;10.05;;;;;;;;;;5061034;28;20474;-64
2021/11/07 07:48:40;;;;;;;20.08;8.38;;;;;;;;;;5063122;28;20042;-65
2021/11/07 07:51:08;;;;;;;22.88;8.52;;;;;;;;;;5062938;28;20114;-65
2021/11/07 07:53:37;;;;;;;19.65;8.65;;;;;;;;;;5065161;28;20511;-65
2021/11/07 07:56:07;;;;;;;22.35;8.75;;;;;;;;;;5061253;28;20127;-64
2021/11/07 07:58:37;;;;;;;21.20;9.07;;;;;;;;;;5066458;28;20106;-65
2021/11/07 08:01:05;;;;;;;27.58;10.63;;;;;;;;;;5055029;28;20494;-66
2021/11/07 08:03:34;;;;;;;23.10;9.85;;;;;;;;;;5058453;28;20060;-65
2021/11/07 08:06:02;;;;;;;23.08;9.63;;;;;;;;;;5054589;28;20484;-64
2021/11/07 08:08:31;;;;;;;23.40;9.95;;;;;;;;;;5064819;28;20037;-64
2021/11/07 08:10:59;;;;;;;20.55;8.57;;;;;;;;;;5059474;28;20056;-64
2021/11/07 08:13:29;;;;;;;22.45;10.60;;;;;;;;;;5064210;28;20249;-65
2021/11/07 08:15:57;;;;;;;23.15;9.73;;;;;;;;;;5067515;28;20049;-65
2021/11/07 08:18:26;;;;;;;20.08;9.20;;;;;;;;;;5063648;28;20044;-65
2021/11/07 08:20:55;;;;;;;23.23;9.88;;;;;;;;;;5062953;28;20098;-64
2021/11/07 08:23:24;;;;;;;23.05;9.73;;;;;;;;;;5055280;28;20108;-65
2021/11/07 08:25:52;;;;;;;23.40;9.52;;;;;;;;;;5058793;28;20048;-65
2021/11/07 08:28:22;;;;;;;20.63;8.00;;;;;;;;;;5062979;28;20611;-65
2021/11/07 08:30:54;;;;;;;22.73;9.35;;;;;;;;;;5056424;28;20045;-64
2021/11/07 08:33:23;;;;;;;21.13;8.05;;;;;;;;;;5048607;28;20068;-64
2021/11/07 08:35:51;;;;;;;23.90;9.75;;;;;;;;;;5066079;28;20147;-65
2021/11/07 08:38:22;;;;;;;23.75;9.93;;;;;;;;;;5057455;28;20454;-64
2021/11/07 08:41:04;;;;;;;20.42;8.43;;;;;;;;;;5058829;28;20059;-64
2021/11/07 09:00:31;;;;;;;15.93;6.25;;;;;;;;;;5063421;28;20053;-65
2021/11/07 09:03:15;;;;;;;14.68;6.72;;;;;;;;;;5066698;28;20049;-66
2021/11/07 09:05:54;;;;;;;16.45;6.45;;;;;;;;;;5060615;28;20163;-65
2021/11/07 09:08:24;;;;;;;14.13;6.43;;;;;;;;;;5049574;28;20576;-65
2021/11/07 09:10:54;;;;;;;13.70;6.15;;;;;;;;;;5063446;28;20306;-66
2021/11/07 09:13:22;;;;;;;11.88;5.28;;;;;;;;;;5061026;28;20063;-65
2021/11/07 09:15:51;;;;;;;11.43;5.45;;;;;;;;;;5067970;28;20063;-65
2021/11/07 09:18:21;;;;;;;11.68;4.63;;;;;;;;;;5061223;28;20381;-65
2021/11/07 09:21:01;;;;;;;13.35;5.30;;;;;;;;;;5068898;28;20044;-66
2021/11/07 09:23:33;;;;;;;12.65;5.72;;;;;;;;;;5066111;28;20106;-66
2021/11/07 09:26:17;;;;;;;10.68;5.22;;;;;;;;;;5062936;28;20088;-67
2021/11/07 09:28:49;;;;;;;12.70;5.45;;;;;;;;;;5063229;28;20504;-65
2021/11/07 09:31:29;;;;;;;9.40;4.82;;;;;;;;;;5057701;28;20045;-65
2021/11/07 09:34:09;;;;;;;7.50;3.80;;;;;;;;;;5052516;28;20045;-67
2021/11/07 09:36:40;;;;;;;8.02;3.35;;;;;;;;;;5053241;28;21556;-65
2021/11/07 09:39:18;;;;;;;8.10;4.00;;;;;;;;;;5049677;28;20432;-65
2021/11/07 09:42:03;;;;;;;9.18;4.03;;;;;;;;;;5060676;28;20080;-67
2021/11/07 09:44:38;;;;;;;7.93;3.47;;;;;;;;;;5051061;28;20559;-65
2021/11/07 09:47:27;;;;;;;5.53;3.15;;;;;;;;;;5055663;28;20048;-66
2021/11/07 09:49:57;;;;;;;10.90;3.65;;;;;;;;;;5063588;28;20044;-64
2021/11/07 09:52:30;;;;;;;5.55;2.70;;;;;;;;;;5059036;28;20055;-65
2021/11/07 09:55:00;;;;;;;6.22;2.95;;;;;;;;;;5062923;28;20076;-66
2021/11/07 09:57:29;;;;;;;6.25;3.00;;;;;;;;;;5066559;28;20638;-65
2021/11/07 09:59:59;;;;;;;5.65;3.00;;;;;;;;;;5066491;28;20613;-64
2021/11/07 10:02:28;;;;;;;6.95;3.00;;;;;;;;;;5066719;28;20080;-65
2021/11/07 10:04:59;;;;;;;4.97;2.20;;;;;;;;;;5066021;28;20599;-65
2021/11/07 10:07:31;;;;;;;4.90;2.28;;;;;;;;;;5063646;28;20419;-65
2021/11/07 10:10:02;;;;;;;5.60;2.40;;;;;;;;;;5062646;28;20571;-65
2021/11/07 10:12:37;;;;;;;4.25;2.35;;;;;;;;;;5059699;28;20449;-65
2021/11/07 10:15:09;;;;;;;4.70;2.67;;;;;;;;;;5062321;28;20044;-65
2021/11/07 10:17:40;;;;;;;4.95;2.72;;;;;;;;;;5055431;28;20138;-66
2021/11/07 10:20:21;;;;;;;4.53;2.78;;;;;;;;;;5064686;28;20123;-65
2021/11/07 10:22:53;;;;;;;3.60;2.03;;;;;;;;;;5066760;28;20131;-65
2021/11/07 10:25:24;;;;;;;4.80;2.53;;;;;;;;;;5053167;28;20076;-65
2021/11/07 10:27:57;;;;;;;3.40;1.83;;;;;;;;;;5077874;28;20040;-65
2021/11/07 10:30:26;;;;;;;4.32;2.25;;;;;;;;;;5063742;28;20070;-65
2021/11/07 10:33:07;;;;;;;3.20;1.60;;;;;;;;;;5078751;28;20158;-65
2021/11/07 10:38:47;;;;;;;;;;;;;;;;;;5029139;28;20131;-65
2021/11/07 10:44:23;;;;;;;4.60;2.15;;;;;;;;;;5052836;28;20072;-66
2021/11/07 10:47:12;;;;;;;3.72;2.00;;;;;;;;;;5069027;28;20048;-65
2021/11/07 10:52:31;;;;;;;3.78;1.88;;;;;;;;;;5075224;28;20071;-66
2021/11/07 10:55:02;;;;;;;7.43;1.80;;;;;;;;;;5062825;28;20380;-66
2021/11/07 10:57:31;;;;;;;3.55;2.10;;;;;;;;;;5059089;28;20131;-66
2021/11/07 11:00:07;;;;;;;4.63;2.15;;;;;;;;;;5075606;28;20051;-66
2021/11/07 11:02:37;;;;;;;3.35;1.88;;;;;;;;;;5069099;28;20045;-66
2021/11/07 11:05:07;;;;;;;4.97;1.98;;;;;;;;;;5064004;28;20109;-66
2021/11/07 11:07:50;;;;;;;4.47;1.92;;;;;;;;;;5048867;28;20048;-68
2021/11/07 11:10:21;;;;;;;5.40;2.08;;;;;;;;;;5060724;28;20475;-66
2021/11/07 11:13:03;;;;;;;3.05;1.65;;;;;;;;;;5053445;28;20135;-67
2021/11/07 11:15:38;;;;;;;2.70;1.35;;;;;;;;;;5050947;28;20048;-66
2021/11/07 11:18:20;;;;;;;4.32;2.00;;;;;;;;;;5067996;28;20608;-66
2021/11/07 11:26:56;;;;;;;3.15;1.58;;;;;;;;;;5036300;28;20076;-66
2021/11/07 11:29:39;;;;;;;5.70;2.00;;;;;;;;;;5066190;28;20107;-66
2021/11/07 11:32:16;;;;;;;2.80;1.40;;;;;;;;;;5059666;28;20040;-66
2021/11/07 11:34:46;;;;;;;3.17;1.73;;;;;;;;;;5051678;28;20048;-67
2021/11/07 11:37:20;;;;;;;4.53;1.60;;;;;;;;;;5066743;28;20139;-65
2021/11/07 11:39:57;;;;;;;2.30;1.20;;;;;;;;;;5069860;28;20133;-66
2021/11/07 11:42:29;;;;;;;3.65;1.67;;;;;;;;;;5070581;28;20044;-66
2021/11/07 11:44:58;;;;;;;3.85;1.58;;;;;;;;;;5074831;28;20127;-65
2021/11/07 11:47:55;;;;;;;2.15;1.23;;;;;;;;;;5066439;28;20071;-67
2021/11/07 11:50:32;;;;;;;2.80;1.60;;;;;;;;;;5073416;28;20091;-68
2021/11/07 11:56:23;;;;;;;3.38;1.50;;;;;;;;;;4985928;28;20100;-66
2021/11/07 11:58:57;;;;;;;4.18;1.60;;;;;;;;;;4986103;28;20046;-66
2021/11/07 12:01:29;;;;;;;3.22;1.25;;;;;;;;;;5036660;28;20049;-66
2021/11/07 12:04:09;;;;;;;2.47;1.40;;;;;;;;;;5073211;28;20105;-66
2021/11/07 12:06:46;;;;;;;3.83;1.70;;;;;;;;;;5059663;28;20045;-66
2021/11/07 12:09:30;;;;;;;3.90;1.52;;;;;;;;;;5057361;28;20037;-68
2021/11/07 12:12:05;;;;;;;3.08;1.48;;;;;;;;;;5052613;28;20049;-65
2021/11/07 12:14:54;;;;;;;2.15;1.30;;;;;;;;;;5072057;28;20083;-65
2021/11/07 12:17:27;;;;;;;2.53;1.50;;;;;;;;;;5070734;28;20063;-66
2021/11/07 12:19:59;;;;;;;2.67;1.20;;;;;;;;;;5060221;28;20062;-66
2021/11/07 12:22:31;;;;;;;2.10;1.27;;;;;;;;;;5056594;28;20045;-65
2021/11/07 12:25:03;;;;;;;2.35;1.27;;;;;;;;;;5069192;28;20516;-66
2021/11/07 12:27:36;;;;;;;1.95;1.35;;;;;;;;;;5069532;28;20055;-67
2021/11/07 12:30:15;;;;;;;2.35;1.25;;;;;;;;;;5061364;28;20056;-67
2021/11/07 12:32:46;;;;;;;2.75;1.23;;;;;;;;;;5062852;28;20052;-68
2021/11/07 12:35:19;;;;;;;3.83;1.42;;;;;;;;;;5060014;28;20048;-67
2021/11/07 12:40:47;;;;;;;2.47;1.27;;;;;;;;;;5072161;28;20075;-67
2021/11/07 12:43:21;;;;;;;3.30;1.23;;;;;;;;;;5067487;28;20044;-67
2021/11/07 12:45:52;;;;;;;3.25;1.20;;;;;;;;;;5066861;28;20319;-67
2021/11/07 12:48:41;;;;;;;2.08;1.08;;;;;;;;;;5066397;28;20051;-67
2021/11/07 12:51:10;;;;;;;1.58;1.02;;;;;;;;;;5086654;28;20058;-67
2021/11/07 12:54:02;;;;;;;3.17;1.27;;;;;;;;;;5074499;28;20080;-67
2021/11/07 12:56:35;;;;;;;2.75;1.02;;;;;;;;;;5078269;28;20399;-67
2021/11/07 12:59:07;;;;;;;1.80;1.00;;;;;;;;;;5080049;28;20415;-67
2021/11/07 13:01:54;;;;;;;3.03;1.27;;;;;;;;;;5084131;28;20049;-67
2021/11/07 13:04:23;;;;;;;1.10;0.90;;;;;;;;;;5068883;28;20048;-66
2021/11/07 13:06:54;;;;;;;2.42;1.20;;;;;;;;;;5078351;28;20128;-67
2021/11/07 13:09:26;;;;;;;1.83;1.10;;;;;;;;;;5073261;28;20067;-67
2021/11/07 13:11:57;;;;;;;1.10;0.90;;;;;;;;;;5076294;28;20106;-67
2021/11/07 13:14:45;;;;;;;2.28;1.13;;;;;;;;;;5087994;28;20106;-67
2021/11/07 13:17:38;;;;;;;1.70;1.08;;;;;;;;;;5051078;28;20044;-68
2021/11/07 13:20:30;;;;;;;2.50;1.25;;;;;;;;;;5067639;28;20049;-67
2021/11/07 13:23:12;;;;;;;1.80;1.15;;;;;;;;;;5062878;28;20052;-68
2021/11/07 13:25:50;;;;;;;2.05;1.20;;;;;;;;;;5060405;28;20052;-68
2021/11/07 13:28:29;;;;;;;1.73;1.13;;;;;;;;;;5063936;28;20088;-66
2021/11/07 13:31:06;;;;;;;2.13;1.05;;;;;;;;;;5065124;28;20151;-66
2021/11/07 13:33:37;;;;;;;3.08;1.00;;;;;;;;;;5070538;28;20048;-65
2021/11/07 13:36:06;;;;;;;2.30;1.10;;;;;;;;;;5068020;28;20572;-65
2021/11/07 13:38:39;;;;;;;2.45;1.42;;;;;;;;;;5060425;28;20052;-66
2021/11/07 13:41:18;;;;;;;4.18;2.08;;;;;;;;;;5054000;28;20143;-65
2021/11/07 13:43:51;;;;;;;2.45;1.50;;;;;;;;;;5069472;28;20057;-65
2021/11/07 13:46:21;;;;;;;5.15;2.10;;;;;;;;;;5068248;28;20056;-66
2021/11/07 13:49:01;;;;;;;3.55;2.30;;;;;;;;;;5063108;28;20120;-66
2021/11/07 13:51:29;;;;;;;3.28;1.83;;;;;;;;;;5064469;28;20108;-66
2021/11/07 13:53:59;;;;;;;4.60;2.28;;;;;;;;;;5073231;28;20080;-65
2021/11/07 13:56:27;;;;;;;4.63;2.10;;;;;;;;;;5060209;28;20048;-65
2021/11/07 13:58:56;;;;;;;4.05;2.30;;;;;;;;;;5068546;28;20064;-66
2021/11/07 14:01:32;;;;;;;2.35;1.55;;;;;;;;;;5061779;28;20132;-65
2021/11/07 14:04:02;;;;;;;2.88;1.60;;;;;;;;;;5071919;28;20083;-66
2021/11/07 14:06:36;;;;;;;2.40;1.40;;;;;;;;;;5080302;28;20365;-66
2021/11/07 14:09:05;;;;;;;2.40;1.27;;;;;;;;;;5075326;28;20065;-66
2021/11/07 14:11:36;;;;;;;2.42;1.05;;;;;;;;;;5073542;28;20075;-66
2021/11/07 14:14:07;;;;;;;3.33;1.58;;;;;;;;;;5071478;28;20078;-66
2021/11/07 14:16:40;;;;;;;1.70;0.82;;;;;;;;;;5070216;28;20072;-66
2021/11/07 14:19:11;;;;;;;2.92;1.30;;;;;;;;;;5071504;28;20106;-65
2021/11/07 14:21:41;;;;;;;2.03;1.23;;;;;;;;;;5061861;28;20447;-67
2021/11/07 14:24:15;;;;;;;1.70;1.17;;;;;;;;;;5070389;28;20048;-66
2021/11/07 14:26:49;;;;;;;2.30;1.17;;;;;;;;;;5073403;28;20066;-66
2021/11/07 14:29:23;;;;;;;2.25;1.30;;;;;;;;;;5071739;28;20048;-66
2021/11/07 14:31:57;;;;;;;3.20;1.52;;;;;;;;;;5074012;28;20055;-66
2021/11/07 14:34:31;;;;;;;4.75;1.35;;;;;;;;;;5067887;28;20515;-66
2021/11/07 14:37:03;;;;;;;2.60;1.52;;;;;;;;;;5070548;28;20075;-66
2021/11/07 14:42:28;;;;;;;;;;;;;;;;;;5070478;28;20135;-66
2021/11/07 14:45:20;;;;;;;2.58;1.23;;;;;;;;;;5071005;28;19923;-66
2021/11/07 14:48:07;;;;;;;2.80;1.65;;;;;;;;;;5087673;28;20079;-67
2021/11/07 14:50:47;;;;;;;2.40;1.33;;;;;;;;;;5067570;28;20063;-67
2021/11/07 14:53:19;;;;;;;2.08;1.38;;;;;;;;;;5085004;28;20480;-66
2021/11/07 14:55:55;;;;;;;2.03;1.38;;;;;;;;;;5070109;28;20167;-67
2021/11/07 14:58:45;;;;;;;3.95;1.80;;;;;;;;;;5069657;28;20401;-66
2021/11/07 15:01:25;;;;;;;3.30;1.30;;;;;;;;;;5067958;28;20099;-67
2021/11/07 15:04:02;;;;;;;3.20;1.20;;;;;;;;;;5082634;28;20107;-66
2021/11/07 15:06:36;;;;;;;6.18;2.15;;;;;;;;;;5058596;28;20407;-66
2021/11/07 15:09:09;;;;;;;3.15;1.67;;;;;;;;;;5056374;28;20041;-66
2021/11/07 15:11:51;;;;;;;2.25;1.42;;;;;;;;;;5065590;28;20112;-66
2021/11/07 15:14:38;;;;;;;3.38;1.45;;;;;;;;;;5066346;28;20097;-66
2021/11/07 15:17:36;;;;;;;3.08;1.35;;;;;;;;;;5069181;28;20527;-66
2021/11/07 15:20:17;;;;;;;2.42;1.15;;;;;;;;;;5063581;28;20088;-67
2021/11/07 15:22:47;;;;;;;4.15;1.40;;;;;;;;;;5068314;28;20072;-66
2021/11/07 15:25:16;;;;;;;4.47;1.30;;;;;;;;;;5067441;28;20174;-66
2021/11/07 15:27:54;;;;;;;2.85;1.30;;;;;;;;;;5078111;28;20098;-67
2021/11/07 15:30:23;;;;;;;2.63;1.30;;;;;;;;;;5074068;28;20142;-66
2021/11/07 15:32:51;;;;;;;2.10;1.13;;;;;;;;;;5066617;28;20048;-67
2021/11/07 15:35:22;;;;;;;3.88;1.40;;;;;;;;;;5063492;28;20061;-67
2021/11/07 15:37:51;;;;;;;1.70;1.17;;;;;;;;;;5081881;28;20057;-66
2021/11/07 15:40:29;;;;;;;2.80;1.30;;;;;;;;;;5069629;28;20052;-66
2021/11/07 15:42:58;;;;;;;2.88;1.48;;;;;;;;;;5068986;28;20049;-66
2021/11/07 15:45:29;;;;;;;3.83;1.35;;;;;;;;;;5066318;28;20049;-66
2021/11/07 15:47:59;;;;;;;2.30;1.30;;;;;;;;;;5074016;28;20134;-66
2021/11/07 15:50:33;;;;;;;1.83;1.20;;;;;;;;;;5061552;28;20143;-66
2021/11/07 15:53:06;;;;;;;3.80;1.77;;;;;;;;;;5073894;28;20058;-67
2021/11/07 15:55:39;;;;;;;4.88;1.95;;;;;;;;;;5055623;28;20049;-66
2021/11/07 15:58:32;;;;;;;3.35;1.75;;;;;;;;;;5059481;28;20245;-66